sensor_id;sensor_type;location;lat;lon;timestamp;P1;durP1;ratioP1;P2;durP2;ratioP2
33094;SDS011;19459;53.044;8.910;2022-08-07T00:01:41;40.97;;;21.77;;
33094;SDS011;19459;53.044;8.910;2022-08-07T00:04:07;38.55;;;21.63;;
33094;SDS011;19459;53.044;8.910;2022-08-07T00:06:33;36.78;;;20.58;;
33094;SDS011;19459;53.044;8.910;2022-08-07T00:09:00;34.53;;;19.55;;
33094;SDS011;19459;53.044;8.910;2022-08-07T00:11:27;29.20;;;18.50;;
33094;SDS011;19459;53.044;8.910;2022-08-07T00:13:53;31.33;;;18.75;;
33094;SDS011;19459;53.044;8.910;2022-08-07T00:16:20;30.63;;;17.52;;
33094;SDS011;19459;53.044;8.910;2022-08-07T00:18:46;29.80;;;17.90;;
33094;SDS011;19459;53.044;8.910;2022-08-07T00:21:12;30.92;;;16.98;;
33094;SDS011;19459;53.044;8.910;2022-08-07T00:23:38;27.27;;;16.65;;
33094;SDS011;19459;53.044;8.910;2022-08-07T00:26:06;29.45;;;17.40;;
33094;SDS011;19459;53.044;8.910;2022-08-07T00:28:40;25.88;;;16.85;;
33094;SDS011;19459;53.044;8.910;2022-08-07T00:31:07;25.77;;;16.33;;
33094;SDS011;19459;53.044;8.910;2022-08-07T00:33:37;30.63;;;17.17;;
33094;SDS011;19459;53.044;8.910;2022-08-07T00:36:04;26.40;;;16.13;;
33094;SDS011;19459;53.044;8.910;2022-08-07T00:38:32;24.88;;;14.90;;
33094;SDS011;19459;53.044;8.910;2022-08-07T00:41:00;23.73;;;15.27;;
33094;SDS011;19459;53.044;8.910;2022-08-07T00:43:27;23.45;;;15.02;;
33094;SDS011;19459;53.044;8.910;2022-08-07T00:45:53;23.38;;;15.48;;
33094;SDS011;19459;53.044;8.910;2022-08-07T00:48:19;22.98;;;15.18;;
33094;SDS011;19459;53.044;8.910;2022-08-07T00:50:48;21.15;;;14.15;;
33094;SDS011;19459;53.044;8.910;2022-08-07T00:53:14;24.73;;;15.30;;
33094;SDS011;19459;53.044;8.910;2022-08-07T00:55:39;24.27;;;13.85;;
33094;SDS011;19459;53.044;8.910;2022-08-07T00:58:05;23.35;;;14.10;;
33094;SDS011;19459;53.044;8.910;2022-08-07T01:00:31;19.48;;;13.50;;
33094;SDS011;19459;53.044;8.910;2022-08-07T01:02:57;24.50;;;15.07;;
33094;SDS011;19459;53.044;8.910;2022-08-07T01:05:23;21.02;;;14.63;;
33094;SDS011;19459;53.044;8.910;2022-08-07T01:07:51;21.30;;;14.68;;
33094;SDS011;19459;53.044;8.910;2022-08-07T01:10:16;19.60;;;13.05;;
33094;SDS011;19459;53.044;8.910;2022-08-07T01:12:43;19.52;;;13.00;;
33094;SDS011;19459;53.044;8.910;2022-08-07T01:15:09;23.83;;;13.90;;
33094;SDS011;19459;53.044;8.910;2022-08-07T01:17:35;21.13;;;14.23;;
33094;SDS011;19459;53.044;8.910;2022-08-07T01:20:09;19.30;;;12.32;;
33094;SDS011;19459;53.044;8.910;2022-08-07T01:22:37;21.25;;;12.63;;
33094;SDS011;19459;53.044;8.910;2022-08-07T01:25:05;19.30;;;12.65;;
33094;SDS011;19459;53.044;8.910;2022-08-07T01:27:32;16.60;;;11.70;;
33094;SDS011;19459;53.044;8.910;2022-08-07T01:29:58;22.58;;;12.75;;
33094;SDS011;19459;53.044;8.910;2022-08-07T01:32:24;18.27;;;11.65;;
33094;SDS011;19459;53.044;8.910;2022-08-07T01:34:51;20.05;;;13.00;;
33094;SDS011;19459;53.044;8.910;2022-08-07T01:37:17;19.70;;;11.93;;
33094;SDS011;19459;53.044;8.910;2022-08-07T01:39:44;21.80;;;13.45;;
33094;SDS011;19459;53.044;8.910;2022-08-07T01:42:11;19.23;;;13.18;;
33094;SDS011;19459;53.044;8.910;2022-08-07T01:44:38;21.85;;;13.82;;
33094;SDS011;19459;53.044;8.910;2022-08-07T01:47:05;18.33;;;12.48;;
33094;SDS011;19459;53.044;8.910;2022-08-07T01:49:31;20.80;;;13.15;;
33094;SDS011;19459;53.044;8.910;2022-08-07T01:51:57;19.20;;;12.15;;
33094;SDS011;19459;53.044;8.910;2022-08-07T01:54:25;20.20;;;13.80;;
33094;SDS011;19459;53.044;8.910;2022-08-07T01:57:01;18.58;;;13.02;;
33094;SDS011;19459;53.044;8.910;2022-08-07T01:59:43;21.38;;;13.63;;
33094;SDS011;19459;53.044;8.910;2022-08-07T02:02:25;20.55;;;13.20;;
33094;SDS011;19459;53.044;8.910;2022-08-07T02:05:34;23.35;;;13.95;;
33094;SDS011;19459;53.044;8.910;2022-08-07T02:08:06;19.73;;;12.98;;
33094;SDS011;19459;53.044;8.910;2022-08-07T02:10:35;20.58;;;12.52;;
33094;SDS011;19459;53.044;8.910;2022-08-07T02:13:03;19.27;;;13.20;;
33094;SDS011;19459;53.044;8.910;2022-08-07T02:15:30;17.83;;;12.32;;
33094;SDS011;19459;53.044;8.910;2022-08-07T02:17:57;18.48;;;12.18;;
33094;SDS011;19459;53.044;8.910;2022-08-07T02:20:24;18.33;;;12.45;;
33094;SDS011;19459;53.044;8.910;2022-08-07T02:22:52;17.98;;;12.00;;
33094;SDS011;19459;53.044;8.910;2022-08-07T02:25:21;17.77;;;12.25;;
33094;SDS011;19459;53.044;8.910;2022-08-07T02:27:50;19.00;;;11.60;;
33094;SDS011;19459;53.044;8.910;2022-08-07T02:30:16;20.75;;;12.63;;
33094;SDS011;19459;53.044;8.910;2022-08-07T02:32:43;19.05;;;12.70;;
33094;SDS011;19459;53.044;8.910;2022-08-07T02:35:09;19.13;;;12.50;;
33094;SDS011;19459;53.044;8.910;2022-08-07T02:37:38;16.55;;;11.57;;
33094;SDS011;19459;53.044;8.910;2022-08-07T02:40:05;17.20;;;11.65;;
33094;SDS011;19459;53.044;8.910;2022-08-07T02:42:33;19.23;;;12.23;;
33094;SDS011;19459;53.044;8.910;2022-08-07T02:45:00;18.13;;;11.13;;
33094;SDS011;19459;53.044;8.910;2022-08-07T02:47:29;16.27;;;11.50;;
33094;SDS011;19459;53.044;8.910;2022-08-07T02:49:55;19.25;;;11.43;;
33094;SDS011;19459;53.044;8.910;2022-08-07T02:52:37;17.95;;;12.20;;
33094;SDS011;19459;53.044;8.910;2022-08-07T02:55:24;17.63;;;11.98;;
33094;SDS011;19459;53.044;8.910;2022-08-07T02:57:54;17.73;;;11.65;;
33094;SDS011;19459;53.044;8.910;2022-08-07T03:00:27;18.40;;;11.88;;
33094;SDS011;19459;53.044;8.910;2022-08-07T03:02:54;18.23;;;12.82;;
33094;SDS011;19459;53.044;8.910;2022-08-07T03:05:20;18.90;;;12.45;;
33094;SDS011;19459;53.044;8.910;2022-08-07T03:07:48;17.52;;;11.40;;
33094;SDS011;19459;53.044;8.910;2022-08-07T03:10:15;19.33;;;12.13;;
33094;SDS011;19459;53.044;8.910;2022-08-07T03:12:43;18.17;;;11.35;;
33094;SDS011;19459;53.044;8.910;2022-08-07T03:15:10;17.55;;;10.80;;
33094;SDS011;19459;53.044;8.910;2022-08-07T03:17:37;17.98;;;11.50;;
33094;SDS011;19459;53.044;8.910;2022-08-07T03:20:04;19.15;;;13.05;;
33094;SDS011;19459;53.044;8.910;2022-08-07T03:22:31;17.30;;;11.30;;
33094;SDS011;19459;53.044;8.910;2022-08-07T03:24:58;17.85;;;12.65;;
33094;SDS011;19459;53.044;8.910;2022-08-07T03:27:25;16.10;;;11.13;;
33094;SDS011;19459;53.044;8.910;2022-08-07T03:29:52;19.45;;;12.57;;
33094;SDS011;19459;53.044;8.910;2022-08-07T03:32:21;15.23;;;10.75;;
33094;SDS011;19459;53.044;8.910;2022-08-07T03:34:52;15.68;;;10.90;;
33094;SDS011;19459;53.044;8.910;2022-08-07T03:37:22;18.08;;;12.25;;
33094;SDS011;19459;53.044;8.910;2022-08-07T03:39:48;19.70;;;12.10;;
33094;SDS011;19459;53.044;8.910;2022-08-07T03:42:15;22.08;;;13.45;;
33094;SDS011;19459;53.044;8.910;2022-08-07T03:44:42;20.35;;;11.75;;
33094;SDS011;19459;53.044;8.910;2022-08-07T03:47:10;18.30;;;12.50;;
33094;SDS011;19459;53.044;8.910;2022-08-07T03:49:36;18.48;;;12.45;;
33094;SDS011;19459;53.044;8.910;2022-08-07T03:52:03;16.25;;;11.48;;
33094;SDS011;19459;53.044;8.910;2022-08-07T03:54:30;18.75;;;13.25;;
33094;SDS011;19459;53.044;8.910;2022-08-07T03:56:56;21.58;;;13.30;;
33094;SDS011;19459;53.044;8.910;2022-08-07T03:59:25;18.90;;;12.40;;
33094;SDS011;19459;53.044;8.910;2022-08-07T04:01:52;17.85;;;12.13;;
33094;SDS011;19459;53.044;8.910;2022-08-07T04:04:19;20.83;;;14.23;;
33094;SDS011;19459;53.044;8.910;2022-08-07T04:06:46;21.88;;;13.85;;
33094;SDS011;19459;53.044;8.910;2022-08-07T04:09:12;23.17;;;12.73;;
33094;SDS011;19459;53.044;8.910;2022-08-07T04:11:38;20.55;;;12.73;;
33094;SDS011;19459;53.044;8.910;2022-08-07T04:14:05;22.67;;;12.98;;
33094;SDS011;19459;53.044;8.910;2022-08-07T04:16:31;22.25;;;12.65;;
33094;SDS011;19459;53.044;8.910;2022-08-07T04:18:58;18.77;;;13.07;;
33094;SDS011;19459;53.044;8.910;2022-08-07T04:21:25;24.73;;;13.10;;
33094;SDS011;19459;53.044;8.910;2022-08-07T04:23:51;17.02;;;12.50;;
33094;SDS011;19459;53.044;8.910;2022-08-07T04:26:17;19.77;;;12.75;;
33094;SDS011;19459;53.044;8.910;2022-08-07T04:28:43;22.90;;;13.15;;
33094;SDS011;19459;53.044;8.910;2022-08-07T04:31:09;19.40;;;12.65;;
33094;SDS011;19459;53.044;8.910;2022-08-07T04:33:35;20.73;;;13.55;;
33094;SDS011;19459;53.044;8.910;2022-08-07T04:36:02;19.90;;;12.82;;
33094;SDS011;19459;53.044;8.910;2022-08-07T04:38:32;23.30;;;13.90;;
33094;SDS011;19459;53.044;8.910;2022-08-07T04:41:00;26.33;;;14.65;;
33094;SDS011;19459;53.044;8.910;2022-08-07T04:43:29;23.38;;;13.95;;
33094;SDS011;19459;53.044;8.910;2022-08-07T04:48:33;20.35;;;13.27;;
33094;SDS011;19459;53.044;8.910;2022-08-07T04:51:55;24.17;;;14.98;;
33094;SDS011;19459;53.044;8.910;2022-08-07T05:00:20;18.80;;;12.07;;
33094;SDS011;19459;53.044;8.910;2022-08-07T05:11:31;23.40;;;14.30;;
33094;SDS011;19459;53.044;8.910;2022-08-07T05:14:01;27.15;;;14.90;;
33094;SDS011;19459;53.044;8.910;2022-08-07T05:17:02;22.20;;;13.82;;
33094;SDS011;19459;53.044;8.910;2022-08-07T05:19:42;23.48;;;14.98;;
33094;SDS011;19459;53.044;8.910;2022-08-07T05:22:13;24.77;;;15.30;;
33094;SDS011;19459;53.044;8.910;2022-08-07T05:24:41;23.75;;;13.15;;
33094;SDS011;19459;53.044;8.910;2022-08-07T05:27:09;25.25;;;14.82;;
33094;SDS011;19459;53.044;8.910;2022-08-07T05:29:39;24.75;;;14.93;;
33094;SDS011;19459;53.044;8.910;2022-08-07T05:32:08;26.17;;;16.15;;
33094;SDS011;19459;53.044;8.910;2022-08-07T05:34:35;33.30;;;18.40;;
33094;SDS011;19459;53.044;8.910;2022-08-07T05:37:02;30.05;;;18.30;;
33094;SDS011;19459;53.044;8.910;2022-08-07T05:39:29;33.03;;;17.20;;
33094;SDS011;19459;53.044;8.910;2022-08-07T05:41:55;31.98;;;18.55;;
33094;SDS011;19459;53.044;8.910;2022-08-07T05:44:21;29.08;;;17.33;;
33094;SDS011;19459;53.044;8.910;2022-08-07T05:46:48;26.77;;;16.75;;
33094;SDS011;19459;53.044;8.910;2022-08-07T05:49:15;25.20;;;15.48;;
33094;SDS011;19459;53.044;8.910;2022-08-07T05:51:43;24.67;;;15.25;;
33094;SDS011;19459;53.044;8.910;2022-08-07T05:54:10;34.88;;;17.95;;
33094;SDS011;19459;53.044;8.910;2022-08-07T05:56:37;24.95;;;16.67;;
33094;SDS011;19459;53.044;8.910;2022-08-07T05:59:04;25.30;;;16.25;;
33094;SDS011;19459;53.044;8.910;2022-08-07T06:01:34;23.60;;;15.43;;
33094;SDS011;19459;53.044;8.910;2022-08-07T06:04:03;25.98;;;14.85;;
33094;SDS011;19459;53.044;8.910;2022-08-07T06:06:31;23.20;;;15.60;;
33094;SDS011;19459;53.044;8.910;2022-08-07T06:08:58;19.70;;;13.50;;
33094;SDS011;19459;53.044;8.910;2022-08-07T06:11:25;27.75;;;14.90;;
33094;SDS011;19459;53.044;8.910;2022-08-07T06:13:52;21.58;;;15.10;;
33094;SDS011;19459;53.044;8.910;2022-08-07T06:16:19;25.75;;;13.32;;
33094;SDS011;19459;53.044;8.910;2022-08-07T06:18:47;21.70;;;12.57;;
33094;SDS011;19459;53.044;8.910;2022-08-07T06:21:13;17.13;;;12.55;;
33094;SDS011;19459;53.044;8.910;2022-08-07T06:23:42;18.50;;;12.07;;
33094;SDS011;19459;53.044;8.910;2022-08-07T06:26:10;20.80;;;14.23;;
33094;SDS011;19459;53.044;8.910;2022-08-07T06:28:47;19.63;;;12.07;;
33094;SDS011;19459;53.044;8.910;2022-08-07T06:31:15;15.15;;;11.20;;
33094;SDS011;19459;53.044;8.910;2022-08-07T06:33:41;17.15;;;12.48;;
33094;SDS011;19459;53.044;8.910;2022-08-07T06:36:08;21.80;;;11.70;;
33094;SDS011;19459;53.044;8.910;2022-08-07T06:38:34;19.10;;;11.10;;
33094;SDS011;19459;53.044;8.910;2022-08-07T06:41:00;21.45;;;13.48;;
33094;SDS011;19459;53.044;8.910;2022-08-07T06:43:34;24.70;;;12.57;;
33094;SDS011;19459;53.044;8.910;2022-08-07T06:46:02;16.80;;;9.98;;
33094;SDS011;19459;53.044;8.910;2022-08-07T06:48:28;16.35;;;10.82;;
33094;SDS011;19459;53.044;8.910;2022-08-07T06:50:54;18.95;;;12.40;;
33094;SDS011;19459;53.044;8.910;2022-08-07T06:53:24;16.05;;;10.63;;
33094;SDS011;19459;53.044;8.910;2022-08-07T06:55:53;15.65;;;11.35;;
33094;SDS011;19459;53.044;8.910;2022-08-07T06:58:19;14.05;;;9.90;;
33094;SDS011;19459;53.044;8.910;2022-08-07T07:00:46;17.17;;;10.40;;
33094;SDS011;19459;53.044;8.910;2022-08-07T07:03:13;16.65;;;10.27;;
33094;SDS011;19459;53.044;8.910;2022-08-07T07:05:40;17.52;;;11.27;;
33094;SDS011;19459;53.044;8.910;2022-08-07T07:08:06;18.17;;;9.75;;
33094;SDS011;19459;53.044;8.910;2022-08-07T07:10:33;11.85;;;8.88;;
33094;SDS011;19459;53.044;8.910;2022-08-07T07:13:07;17.83;;;9.02;;
33094;SDS011;19459;53.044;8.910;2022-08-07T07:15:41;17.27;;;9.48;;
33094;SDS011;19459;53.044;8.910;2022-08-07T07:18:22;16.48;;;9.75;;
33094;SDS011;19459;53.044;8.910;2022-08-07T07:20:55;14.68;;;9.05;;
33094;SDS011;19459;53.044;8.910;2022-08-07T07:23:43;19.70;;;11.23;;
33094;SDS011;19459;53.044;8.910;2022-08-07T07:26:10;14.35;;;9.57;;
33094;SDS011;19459;53.044;8.910;2022-08-07T07:28:44;12.52;;;9.05;;
33094;SDS011;19459;53.044;8.910;2022-08-07T07:31:21;15.18;;;9.15;;
33094;SDS011;19459;53.044;8.910;2022-08-07T07:33:53;15.52;;;8.93;;
33094;SDS011;19459;53.044;8.910;2022-08-07T07:36:24;16.85;;;10.57;;
33094;SDS011;19459;53.044;8.910;2022-08-07T07:38:50;14.57;;;9.80;;
33094;SDS011;19459;53.044;8.910;2022-08-07T07:41:16;14.75;;;8.93;;
33094;SDS011;19459;53.044;8.910;2022-08-07T07:43:46;12.30;;;8.35;;
33094;SDS011;19459;53.044;8.910;2022-08-07T07:46:15;12.18;;;8.57;;
33094;SDS011;19459;53.044;8.910;2022-08-07T07:48:41;11.75;;;8.60;;
33094;SDS011;19459;53.044;8.910;2022-08-07T07:51:08;19.33;;;9.27;;
33094;SDS011;19459;53.044;8.910;2022-08-07T07:53:39;11.63;;;8.80;;
33094;SDS011;19459;53.044;8.910;2022-08-07T07:56:08;12.50;;;8.38;;
33094;SDS011;19459;53.044;8.910;2022-08-07T07:58:37;12.30;;;7.43;;
33094;SDS011;19459;53.044;8.910;2022-08-07T08:01:04;12.25;;;7.95;;
33094;SDS011;19459;53.044;8.910;2022-08-07T08:03:33;9.43;;;7.95;;
33094;SDS011;19459;53.044;8.910;2022-08-07T08:06:02;16.20;;;8.23;;
33094;SDS011;19459;53.044;8.910;2022-08-07T08:08:29;9.63;;;8.13;;
33094;SDS011;19459;53.044;8.910;2022-08-07T08:10:56;12.85;;;8.02;;
33094;SDS011;19459;53.044;8.910;2022-08-07T08:13:24;12.13;;;8.43;;
33094;SDS011;19459;53.044;8.910;2022-08-07T08:15:53;10.07;;;7.55;;
33094;SDS011;19459;53.044;8.910;2022-08-07T08:18:22;12.45;;;7.68;;
33094;SDS011;19459;53.044;8.910;2022-08-07T08:20:51;27.02;;;8.93;;
33094;SDS011;19459;53.044;8.910;2022-08-07T08:23:18;12.60;;;7.35;;
33094;SDS011;19459;53.044;8.910;2022-08-07T08:26:03;9.82;;;7.72;;
33094;SDS011;19459;53.044;8.910;2022-08-07T08:28:51;12.15;;;7.18;;
33094;SDS011;19459;53.044;8.910;2022-08-07T08:31:25;11.90;;;7.63;;
33094;SDS011;19459;53.044;8.910;2022-08-07T08:33:54;8.82;;;7.25;;
33094;SDS011;19459;53.044;8.910;2022-08-07T08:36:25;9.48;;;7.45;;
33094;SDS011;19459;53.044;8.910;2022-08-07T08:38:53;10.82;;;7.32;;
33094;SDS011;19459;53.044;8.910;2022-08-07T08:47:04;10.27;;;7.50;;
33094;SDS011;19459;53.044;8.910;2022-08-07T08:49:41;10.30;;;7.15;;
33094;SDS011;19459;53.044;8.910;2022-08-07T08:52:18;13.00;;;7.55;;
33094;SDS011;19459;53.044;8.910;2022-08-07T08:54:53;7.88;;;6.22;;
33094;SDS011;19459;53.044;8.910;2022-08-07T08:57:41;13.18;;;6.72;;
33094;SDS011;19459;53.044;8.910;2022-08-07T09:00:16;10.57;;;7.45;;
33094;SDS011;19459;53.044;8.910;2022-08-07T09:02:51;13.35;;;7.13;;
33094;SDS011;19459;53.044;8.910;2022-08-07T09:27:27;10.85;;;6.00;;
33094;SDS011;19459;53.044;8.910;2022-08-07T09:35:27;7.32;;;5.78;;
33094;SDS011;19459;53.044;8.910;2022-08-07T09:38:37;9.32;;;6.53;;
33094;SDS011;19459;53.044;8.910;2022-08-07T09:41:53;8.10;;;6.82;;
33094;SDS011;19459;53.044;8.910;2022-08-07T09:50:21;7.35;;;6.53;;
33094;SDS011;19459;53.044;8.910;2022-08-07T09:52:59;7.38;;;5.85;;
33094;SDS011;19459;53.044;8.910;2022-08-07T09:55:31;8.65;;;6.05;;
33094;SDS011;19459;53.044;8.910;2022-08-07T10:10:05;7.18;;;5.90;;
33094;SDS011;19459;53.044;8.910;2022-08-07T10:40:09;7.57;;;5.45;;
33094;SDS011;19459;53.044;8.910;2022-08-07T10:45:48;5.53;;;4.65;;
33094;SDS011;19459;53.044;8.910;2022-08-07T10:51:50;5.75;;;4.63;;
33094;SDS011;19459;53.044;8.910;2022-08-07T10:54:43;6.30;;;4.75;;
33094;SDS011;19459;53.044;8.910;2022-08-07T11:00:11;6.95;;;5.13;;
33094;SDS011;19459;53.044;8.910;2022-08-07T11:02:59;5.65;;;4.57;;
33094;SDS011;19459;53.044;8.910;2022-08-07T11:11:38;6.20;;;4.15;;
33094;SDS011;19459;53.044;8.910;2022-08-07T11:14:23;9.02;;;4.55;;
33094;SDS011;19459;53.044;8.910;2022-08-07T11:17:06;5.68;;;4.00;;
33094;SDS011;19459;53.044;8.910;2022-08-07T11:22:26;5.18;;;4.78;;
33094;SDS011;19459;53.044;8.910;2022-08-07T11:25:08;6.68;;;5.15;;
33094;SDS011;19459;53.044;8.910;2022-08-07T11:28:00;5.38;;;4.50;;
33094;SDS011;19459;53.044;8.910;2022-08-07T11:30:40;6.38;;;4.28;;
33094;SDS011;19459;53.044;8.910;2022-08-07T11:33:17;4.40;;;4.00;;
33094;SDS011;19459;53.044;8.910;2022-08-07T11:35:56;7.63;;;4.18;;
33094;SDS011;19459;53.044;8.910;2022-08-07T11:41:47;4.65;;;4.22;;
33094;SDS011;19459;53.044;8.910;2022-08-07T11:44:39;5.38;;;4.88;;
33094;SDS011;19459;53.044;8.910;2022-08-07T11:47:28;5.88;;;4.43;;
33094;SDS011;19459;53.044;8.910;2022-08-07T11:54:29;6.80;;;4.35;;
33094;SDS011;19459;53.044;8.910;2022-08-07T12:08:32;5.68;;;3.58;;
33094;SDS011;19459;53.044;8.910;2022-08-07T12:11:30;6.20;;;3.90;;
33094;SDS011;19459;53.044;8.910;2022-08-07T12:14:05;5.80;;;3.70;;
33094;SDS011;19459;53.044;8.910;2022-08-07T12:16:47;5.68;;;3.28;;
33094;SDS011;19459;53.044;8.910;2022-08-07T12:19:26;5.57;;;3.60;;
33094;SDS011;19459;53.044;8.910;2022-08-07T12:22:11;6.35;;;3.63;;
33094;SDS011;19459;53.044;8.910;2022-08-07T12:27:57;4.93;;;3.30;;
33094;SDS011;19459;53.044;8.910;2022-08-07T12:30:30;5.18;;;3.83;;
33094;SDS011;19459;53.044;8.910;2022-08-07T12:33:03;4.93;;;3.95;;
33094;SDS011;19459;53.044;8.910;2022-08-07T12:35:37;5.15;;;3.78;;
33094;SDS011;19459;53.044;8.910;2022-08-07T12:38:05;7.70;;;3.60;;
33094;SDS011;19459;53.044;8.910;2022-08-07T12:40:33;4.93;;;3.50;;
33094;SDS011;19459;53.044;8.910;2022-08-07T12:43:01;6.55;;;3.35;;
33094;SDS011;19459;53.044;8.910;2022-08-07T12:48:59;3.83;;;3.33;;
33094;SDS011;19459;53.044;8.910;2022-08-07T12:51:38;3.67;;;3.25;;
33094;SDS011;19459;53.044;8.910;2022-08-07T12:54:20;6.10;;;3.72;;
33094;SDS011;19459;53.044;8.910;2022-08-07T12:57:07;5.55;;;3.65;;
33094;SDS011;19459;53.044;8.910;2022-08-07T12:59:34;4.45;;;3.53;;
33094;SDS011;19459;53.044;8.910;2022-08-07T13:07:57;4.97;;;3.13;;
33094;SDS011;19459;53.044;8.910;2022-08-07T13:19:41;4.20;;;3.40;;
33094;SDS011;19459;53.044;8.910;2022-08-07T13:22:51;3.78;;;3.38;;
33094;SDS011;19459;53.044;8.910;2022-08-07T13:25:47;4.22;;;3.63;;
33094;SDS011;19459;53.044;8.910;2022-08-07T13:28:22;4.28;;;3.40;;
33094;SDS011;19459;53.044;8.910;2022-08-07T13:31:06;5.40;;;3.40;;
33094;SDS011;19459;53.044;8.910;2022-08-07T13:33:57;4.33;;;3.93;;
33094;SDS011;19459;53.044;8.910;2022-08-07T13:36:42;4.55;;;3.70;;
33094;SDS011;19459;53.044;8.910;2022-08-07T13:39:20;4.88;;;3.75;;
33094;SDS011;19459;53.044;8.910;2022-08-07T13:42:02;4.00;;;3.58;;
33094;SDS011;19459;53.044;8.910;2022-08-07T13:44:34;4.45;;;3.70;;
33094;SDS011;19459;53.044;8.910;2022-08-07T13:47:02;3.58;;;3.28;;
33094;SDS011;19459;53.044;8.910;2022-08-07T13:49:32;5.57;;;4.20;;
33094;SDS011;19459;53.044;8.910;2022-08-07T13:52:06;5.80;;;3.75;;
33094;SDS011;19459;53.044;8.910;2022-08-07T13:54:33;5.20;;;3.58;;
33094;SDS011;19459;53.044;8.910;2022-08-07T13:57:01;4.25;;;3.65;;
33094;SDS011;19459;53.044;8.910;2022-08-07T13:59:36;4.78;;;3.28;;
33094;SDS011;19459;53.044;8.910;2022-08-07T14:02:10;4.38;;;3.20;;
33094;SDS011;19459;53.044;8.910;2022-08-07T14:07:08;7.47;;;4.03;;
33094;SDS011;19459;53.044;8.910;2022-08-07T14:09:35;4.60;;;3.78;;
33094;SDS011;19459;53.044;8.910;2022-08-07T14:12:04;4.60;;;4.05;;
33094;SDS011;19459;53.044;8.910;2022-08-07T14:14:43;5.07;;;3.85;;
33094;SDS011;19459;53.044;8.910;2022-08-07T14:17:16;6.85;;;3.58;;
33094;SDS011;19459;53.044;8.910;2022-08-07T14:19:47;4.35;;;3.95;;
33094;SDS011;19459;53.044;8.910;2022-08-07T14:22:21;5.47;;;4.93;;
33094;SDS011;19459;53.044;8.910;2022-08-07T14:24:53;4.95;;;4.13;;
33094;SDS011;19459;53.044;8.910;2022-08-07T14:27:28;5.70;;;4.75;;
33094;SDS011;19459;53.044;8.910;2022-08-07T14:30:03;6.20;;;4.95;;
33094;SDS011;19459;53.044;8.910;2022-08-07T14:32:36;4.95;;;3.97;;
33094;SDS011;19459;53.044;8.910;2022-08-07T14:35:10;5.50;;;4.15;;
33094;SDS011;19459;53.044;8.910;2022-08-07T14:37:46;7.72;;;5.10;;
33094;SDS011;19459;53.044;8.910;2022-08-07T14:40:18;5.78;;;3.85;;
33094;SDS011;19459;53.044;8.910;2022-08-07T14:42:54;4.65;;;4.10;;
33094;SDS011;19459;53.044;8.910;2022-08-07T14:45:39;6.65;;;4.15;;
33094;SDS011;19459;53.044;8.910;2022-08-07T14:48:13;5.13;;;4.20;;
33094;SDS011;19459;53.044;8.910;2022-08-07T14:50:50;9.02;;;4.78;;
33094;SDS011;19459;53.044;8.910;2022-08-07T14:53:23;4.82;;;3.83;;
33094;SDS011;19459;53.044;8.910;2022-08-07T14:55:52;5.47;;;4.07;;
33094;SDS011;19459;53.044;8.910;2022-08-07T14:58:21;5.18;;;4.47;;
33094;SDS011;19459;53.044;8.910;2022-08-07T15:00:54;6.43;;;4.35;;
33094;SDS011;19459;53.044;8.910;2022-08-07T15:03:22;7.80;;;4.95;;
33094;SDS011;19459;53.044;8.910;2022-08-07T15:05:53;6.20;;;4.55;;
33094;SDS011;19459;53.044;8.910;2022-08-07T15:08:31;3.67;;;3.30;;
33094;SDS011;19459;53.044;8.910;2022-08-07T15:11:01;4.53;;;3.92;;
33094;SDS011;19459;53.044;8.910;2022-08-07T15:13:34;4.97;;;4.00;;
33094;SDS011;19459;53.044;8.910;2022-08-07T15:16:15;6.20;;;3.80;;
33094;SDS011;19459;53.044;8.910;2022-08-07T15:18:48;8.38;;;4.50;;
33094;SDS011;19459;53.044;8.910;2022-08-07T15:21:19;10.85;;;4.72;;
33094;SDS011;19459;53.044;8.910;2022-08-07T15:23:51;6.70;;;3.97;;
33094;SDS011;19459;53.044;8.910;2022-08-07T15:26:23;6.15;;;3.70;;
33094;SDS011;19459;53.044;8.910;2022-08-07T15:29:19;7.13;;;3.83;;
33094;SDS011;19459;53.044;8.910;2022-08-07T15:31:47;4.68;;;4.10;;
33094;SDS011;19459;53.044;8.910;2022-08-07T15:34:15;7.60;;;3.70;;
33094;SDS011;19459;53.044;8.910;2022-08-07T15:36:42;5.55;;;3.83;;
33094;SDS011;19459;53.044;8.910;2022-08-07T15:39:10;7.05;;;5.03;;
33094;SDS011;19459;53.044;8.910;2022-08-07T15:41:37;5.60;;;4.28;;
33094;SDS011;19459;53.044;8.910;2022-08-07T15:44:24;5.50;;;4.20;;
33094;SDS011;19459;53.044;8.910;2022-08-07T15:47:02;5.03;;;4.10;;
33094;SDS011;19459;53.044;8.910;2022-08-07T15:49:30;7.50;;;4.07;;
33094;SDS011;19459;53.044;8.910;2022-08-07T15:51:59;6.70;;;4.20;;
33094;SDS011;19459;53.044;8.910;2022-08-07T15:54:33;4.97;;;4.13;;
33094;SDS011;19459;53.044;8.910;2022-08-07T15:57:05;6.88;;;4.03;;
33094;SDS011;19459;53.044;8.910;2022-08-07T15:59:35;10.80;;;4.82;;
33094;SDS011;19459;53.044;8.910;2022-08-07T16:02:03;7.07;;;4.70;;
33094;SDS011;19459;53.044;8.910;2022-08-07T16:04:32;5.88;;;4.75;;
33094;SDS011;19459;53.044;8.910;2022-08-07T16:07:00;5.28;;;4.35;;
33094;SDS011;19459;53.044;8.910;2022-08-07T16:12:38;5.20;;;4.70;;
33094;SDS011;19459;53.044;8.910;2022-08-07T16:15:30;7.32;;;4.30;;
33094;SDS011;19459;53.044;8.910;2022-08-07T16:18:23;4.60;;;4.10;;
33094;SDS011;19459;53.044;8.910;2022-08-07T16:24:15;14.57;;;4.65;;
33094;SDS011;19459;53.044;8.910;2022-08-07T16:32:34;6.43;;;4.30;;
33094;SDS011;19459;53.044;8.910;2022-08-07T16:35:10;6.28;;;4.63;;
33094;SDS011;19459;53.044;8.910;2022-08-07T16:41:22;9.90;;;5.25;;
33094;SDS011;19459;53.044;8.910;2022-08-07T16:54:54;6.90;;;5.47;;
33094;SDS011;19459;53.044;8.910;2022-08-07T17:03:27;4.85;;;4.25;;
33094;SDS011;19459;53.044;8.910;2022-08-07T17:08:44;5.65;;;3.83;;
33094;SDS011;19459;53.044;8.910;2022-08-07T17:11:25;5.45;;;4.20;;
33094;SDS011;19459;53.044;8.910;2022-08-07T17:14:09;6.00;;;4.55;;
33094;SDS011;19459;53.044;8.910;2022-08-07T17:16:46;6.25;;;4.22;;
33094;SDS011;19459;53.044;8.910;2022-08-07T17:22:04;7.70;;;4.35;;
33094;SDS011;19459;53.044;8.910;2022-08-07T17:27:37;6.75;;;4.63;;
33094;SDS011;19459;53.044;8.910;2022-08-07T17:30:19;6.55;;;4.53;;
33094;SDS011;19459;53.044;8.910;2022-08-07T17:35:58;7.07;;;3.92;;
33094;SDS011;19459;53.044;8.910;2022-08-07T17:38:31;8.40;;;4.53;;
33094;SDS011;19459;53.044;8.910;2022-08-07T17:41:21;6.15;;;4.30;;
33094;SDS011;19459;53.044;8.910;2022-08-07T17:44:24;8.75;;;4.18;;
33094;SDS011;19459;53.044;8.910;2022-08-07T17:47:05;4.60;;;4.15;;
33094;SDS011;19459;53.044;8.910;2022-08-07T17:49:40;5.28;;;4.13;;
33094;SDS011;19459;53.044;8.910;2022-08-07T17:52:33;7.22;;;4.15;;
33094;SDS011;19459;53.044;8.910;2022-08-07T17:55:04;7.43;;;3.97;;
33094;SDS011;19459;53.044;8.910;2022-08-07T18:00:09;7.22;;;4.20;;
33094;SDS011;19459;53.044;8.910;2022-08-07T18:16:56;5.43;;;4.18;;
33094;SDS011;19459;53.044;8.910;2022-08-07T18:20:13;4.80;;;3.95;;
33094;SDS011;19459;53.044;8.910;2022-08-07T18:22:49;6.15;;;4.10;;
33094;SDS011;19459;53.044;8.910;2022-08-07T18:25:29;6.80;;;4.25;;
33094;SDS011;19459;53.044;8.910;2022-08-07T18:28:03;6.80;;;3.80;;
33094;SDS011;19459;53.044;8.910;2022-08-07T18:33:41;5.95;;;3.97;;
33094;SDS011;19459;53.044;8.910;2022-08-07T18:39:51;6.95;;;4.05;;
33094;SDS011;19459;53.044;8.910;2022-08-07T18:43:29;6.57;;;4.47;;
33094;SDS011;19459;53.044;8.910;2022-08-07T18:45:42;7.57;;;4.05;;
33094;SDS011;19459;53.044;8.910;2022-08-07T18:51:28;3.75;;;3.28;;
33094;SDS011;19459;53.044;8.910;2022-08-07T18:54:13;5.93;;;3.40;;